createdAt,value
2017-06-17T00:00:08.182Z,12.50
2017-06-17T00:02:36.571Z,12.40
2017-06-17T00:05:05.724Z,12.40
2017-06-17T00:07:34.159Z,12.40
2017-06-17T00:10:02.549Z,12.30
2017-06-17T00:12:30.952Z,12.30
2017-06-17T00:14:59.372Z,12.20
2017-06-17T00:17:27.759Z,12.10
2017-06-17T00:19:56.933Z,12.00
2017-06-17T00:22:25.304Z,12.00
2017-06-17T00:24:53.710Z,12.00
2017-06-17T00:27:22.875Z,11.90
2017-06-17T00:29:51.265Z,11.90
2017-06-17T00:32:19.679Z,11.80
2017-06-17T00:34:48.066Z,11.70
2017-06-17T00:37:16.440Z,11.70
2017-06-17T00:39:44.854Z,11.60
2017-06-17T00:42:13.247Z,11.60
2017-06-17T00:44:41.655Z,11.60
2017-06-17T00:47:10.810Z,11.60
2017-06-17T00:49:39.196Z,11.60
2017-06-17T00:52:07.585Z,11.60
2017-06-17T00:54:35.988Z,11.60
2017-06-17T00:57:05.171Z,11.60
2017-06-17T00:59:34.325Z,11.60
2017-06-17T01:02:02.714Z,11.50
2017-06-17T01:04:31.106Z,11.50
2017-06-17T01:06:59.478Z,11.50
2017-06-17T01:09:27.884Z,11.50
2017-06-17T01:11:57.053Z,11.60
2017-06-17T01:14:25.454Z,11.60
2017-06-17T01:16:53.846Z,11.70
2017-06-17T01:19:22.643Z,11.80
2017-06-17T01:21:51.061Z,11.80
2017-06-17T01:24:19.442Z,11.90
2017-06-17T01:26:47.820Z,12.00
2017-06-17T01:29:16.209Z,12.00
2017-06-17T01:31:44.615Z,12.10
2017-06-17T01:34:13.796Z,12.10
2017-06-17T01:36:42.201Z,12.10
2017-06-17T01:39:10.584Z,12.00
2017-06-17T01:41:39.768Z,12.00
2017-06-17T01:44:08.932Z,12.00
2017-06-17T01:46:37.355Z,12.00
2017-06-17T01:49:06.495Z,11.90
2017-06-17T01:51:34.887Z,11.90
2017-06-17T01:54:03.298Z,11.90
2017-06-17T01:56:31.017Z,11.90
2017-06-17T01:58:59.420Z,11.80
2017-06-17T02:01:27.827Z,11.90
2017-06-17T02:03:56.980Z,11.90
2017-06-17T02:06:25.387Z,11.90
2017-06-17T02:08:54.552Z,12.00
2017-06-17T02:11:22.972Z,12.00
2017-06-17T02:13:51.360Z,12.10
2017-06-17T02:16:19.730Z,12.20
2017-06-17T02:18:48.936Z,12.20
2017-06-17T02:21:22.806Z,12.20
2017-06-17T02:23:51.233Z,12.30
2017-06-17T02:26:19.624Z,12.40
2017-06-17T02:28:47.996Z,12.40
2017-06-17T02:31:16.400Z,12.50
2017-06-17T02:33:44.790Z,12.60
2017-06-17T02:36:13.180Z,12.60
2017-06-17T02:38:41.586Z,12.70
2017-06-17T02:41:10.740Z,12.70
2017-06-17T02:43:39.127Z,12.70
2017-06-17T02:46:07.532Z,12.70
2017-06-17T02:48:36.717Z,12.80
2017-06-17T02:51:05.094Z,12.80
2017-06-17T02:53:33.497Z,12.90
2017-06-17T02:56:01.885Z,12.90
2017-06-17T02:58:30.274Z,13.00
2017-06-17T03:00:58.679Z,13.00
2017-06-17T03:03:27.054Z,13.10
2017-06-17T03:05:55.455Z,13.10
2017-06-17T03:08:23.860Z,13.20
2017-06-17T03:10:53.017Z,13.30
2017-06-17T03:13:21.427Z,13.30
2017-06-17T03:15:50.588Z,13.30
2017-06-17T03:18:18.977Z,13.30
2017-06-17T03:20:47.367Z,13.30
2017-06-17T03:23:15.756Z,13.30
2017-06-17T03:25:44.957Z,13.30
2017-06-17T03:28:14.114Z,13.40
2017-06-17T03:30:42.509Z,13.30
2017-06-17T03:33:10.904Z,13.30
2017-06-17T03:35:40.114Z,13.30
2017-06-17T03:38:09.288Z,13.30
2017-06-17T03:40:37.677Z,13.20
2017-06-17T03:43:06.068Z,13.30
2017-06-17T03:45:34.470Z,13.30
2017-06-17T03:48:02.885Z,13.30
2017-06-17T03:50:31.297Z,13.30
2017-06-17T03:53:00.449Z,13.40
2017-06-17T03:55:28.855Z,13.40
2017-06-17T03:57:57.275Z,13.50
2017-06-17T04:00:25.665Z,13.50
2017-06-17T04:02:54.070Z,13.60
2017-06-17T04:05:22.458Z,13.70
2017-06-17T04:07:50.855Z,13.70
2017-06-17T04:10:19.251Z,13.70
2017-06-17T04:12:47.657Z,13.70
2017-06-17T04:15:16.063Z,13.80
2017-06-17T04:17:44.441Z,13.70
2017-06-17T04:20:12.836Z,13.80
2017-06-17T04:22:41.248Z,13.80
2017-06-17T04:25:09.638Z,13.80
2017-06-17T04:27:38.042Z,13.90
2017-06-17T04:30:06.443Z,13.90
2017-06-17T04:32:34.833Z,13.90
2017-06-17T04:35:03.238Z,14.00
2017-06-17T04:37:31.641Z,14.00
2017-06-17T04:40:00.061Z,14.00
2017-06-17T04:42:28.438Z,14.00
2017-06-17T04:44:56.824Z,13.90
2017-06-17T04:47:25.247Z,13.90
2017-06-17T04:49:53.635Z,13.80
2017-06-17T04:52:22.070Z,13.70
2017-06-17T04:54:50.460Z,13.70
2017-06-17T04:57:18.864Z,13.70
2017-06-17T04:59:46.906Z,13.70
2017-06-17T05:02:15.298Z,13.60
2017-06-17T05:04:43.710Z,13.70
2017-06-17T05:07:12.104Z,13.70
2017-06-17T05:09:40.509Z,13.70
2017-06-17T05:12:09.693Z,13.90
2017-06-17T05:14:38.083Z,13.90
2017-06-17T05:17:07.271Z,14.00
2017-06-17T05:19:35.657Z,14.00
2017-06-17T05:22:04.812Z,14.10
2017-06-17T05:24:33.415Z,14.10
2017-06-17T05:27:01.818Z,14.20
2017-06-17T05:29:31.055Z,14.30
2017-06-17T05:31:59.451Z,14.30
2017-06-17T05:34:27.870Z,14.30
2017-06-17T05:36:57.041Z,14.30
2017-06-17T05:39:25.443Z,14.30
2017-06-17T05:41:54.640Z,14.30
2017-06-17T05:44:23.797Z,14.40
2017-06-17T05:46:52.243Z,14.30
2017-06-17T05:49:20.646Z,14.40
2017-06-17T05:51:49.040Z,14.50
2017-06-17T05:54:17.469Z,14.50
2017-06-17T05:56:45.979Z,14.50
2017-06-17T05:59:14.391Z,14.50
2017-06-17T06:01:42.780Z,14.60
2017-06-17T06:04:11.167Z,14.60
2017-06-17T06:06:40.353Z,14.80
2017-06-17T06:09:08.759Z,14.80
2017-06-17T06:11:37.911Z,14.80
2017-06-17T06:14:06.329Z,14.80
2017-06-17T06:16:35.502Z,15.00
2017-06-17T06:19:04.041Z,14.90
2017-06-17T06:21:32.415Z,15.00
2017-06-17T06:24:00.806Z,15.00
2017-06-17T06:26:29.217Z,15.10
2017-06-17T06:28:57.614Z,15.20
2017-06-17T06:31:26.798Z,15.30
2017-06-17T06:33:56.010Z,15.30
2017-06-17T06:36:24.415Z,15.30
2017-06-17T06:38:52.821Z,15.40
2017-06-17T06:41:21.207Z,15.40
2017-06-17T06:43:49.615Z,15.40
2017-06-17T06:46:18.787Z,15.50
2017-06-17T06:48:47.184Z,15.50
2017-06-17T06:51:15.588Z,15.50
2017-06-17T06:53:44.022Z,15.50
2017-06-17T06:56:12.473Z,15.50
2017-06-17T06:58:40.865Z,15.60
2017-06-17T07:01:09.251Z,15.70
2017-06-17T07:03:37.655Z,15.70
2017-06-17T07:06:06.069Z,15.70
2017-06-17T07:08:34.497Z,15.80
2017-06-17T07:11:02.898Z,15.90
2017-06-17T07:13:32.052Z,16.00
2017-06-17T07:16:00.489Z,16.00
2017-06-17T07:18:29.653Z,16.30
2017-06-17T07:20:58.062Z,16.30
2017-06-17T07:23:27.212Z,16.50
2017-06-17T07:25:55.605Z,16.40
2017-06-17T07:28:24.014Z,16.40
2017-06-17T07:30:52.410Z,16.40
2017-06-17T07:33:20.812Z,16.40
2017-06-17T07:35:49.208Z,16.50
2017-06-17T07:38:17.604Z,16.50
2017-06-17T07:40:46.812Z,16.60
2017-06-17T07:43:16.145Z,16.70
2017-06-17T07:45:44.553Z,16.60
2017-06-17T07:48:12.963Z,16.80
2017-06-17T07:50:42.222Z,16.90
2017-06-17T07:53:10.732Z,16.90
2017-06-17T07:55:39.143Z,16.90
2017-06-17T07:58:08.312Z,17.00
2017-06-17T08:00:36.798Z,16.90
2017-06-17T08:03:05.226Z,16.90
2017-06-17T08:05:33.629Z,16.90
2017-06-17T08:08:02.035Z,17.00
2017-06-17T08:10:31.217Z,17.10
2017-06-17T08:12:59.623Z,17.10
2017-06-17T08:15:28.814Z,17.40
2017-06-17T08:17:57.999Z,17.50
2017-06-17T08:20:26.416Z,17.50
2017-06-17T08:22:54.870Z,17.70
2017-06-17T08:25:24.074Z,17.90
2017-06-17T08:27:52.485Z,17.90
2017-06-17T08:30:20.911Z,17.90
2017-06-17T08:32:49.134Z,18.10
2017-06-17T08:35:17.550Z,18.30
2017-06-17T08:37:45.942Z,18.30
2017-06-17T08:40:14.329Z,18.50
2017-06-17T08:42:42.729Z,18.60
2017-06-17T08:45:11.123Z,18.70
2017-06-17T08:47:39.559Z,18.70
2017-06-17T08:50:07.949Z,18.70
2017-06-17T08:52:37.119Z,18.90
2017-06-17T08:55:05.533Z,18.90
2017-06-17T08:57:34.689Z,19.40
2017-06-17T09:00:03.211Z,19.30
2017-06-17T09:02:31.603Z,19.20
2017-06-17T09:05:00.097Z,19.20
2017-06-17T09:07:28.495Z,19.30
2017-06-17T09:09:56.901Z,19.40
2017-06-17T09:12:25.328Z,19.50
2017-06-17T09:14:53.714Z,19.60
2017-06-17T09:17:22.102Z,19.50
2017-06-17T09:19:50.515Z,19.50
2017-06-17T09:22:19.693Z,19.90
2017-06-17T09:24:48.435Z,19.90
2017-06-17T09:27:16.823Z,20.20
2017-06-17T09:29:45.218Z,20.40
2017-06-17T09:32:13.609Z,20.50
2017-06-17T09:34:42.012Z,20.60
2017-06-17T09:37:10.443Z,20.80
2017-06-17T09:39:38.843Z,20.90
2017-06-17T09:42:07.253Z,21.10
2017-06-17T09:44:35.641Z,21.30
2017-06-17T09:47:04.029Z,21.70
2017-06-17T09:49:32.437Z,21.70
2017-06-17T09:52:00.824Z,21.90
2017-06-17T09:54:29.213Z,22.20
2017-06-17T09:56:57.618Z,22.30
2017-06-17T09:59:26.780Z,22.80
2017-06-17T10:01:55.207Z,22.80
2017-06-17T10:04:26.019Z,21.80
2017-06-17T10:06:54.428Z,21.80
2017-06-17T10:09:22.820Z,21.50
2017-06-17T10:11:51.236Z,21.20
2017-06-17T10:14:19.640Z,21.00
2017-06-17T10:16:48.820Z,21.40
2017-06-17T10:19:17.229Z,21.40
2017-06-17T10:21:45.660Z,21.10
2017-06-17T10:24:14.052Z,21.20
2017-06-17T10:26:42.455Z,21.00
2017-06-17T10:29:10.862Z,21.30
2017-06-17T10:31:39.280Z,21.50
2017-06-17T10:34:07.656Z,21.50
2017-06-17T10:36:36.046Z,21.60
2017-06-17T10:39:03.741Z,21.50
2017-06-17T10:41:32.140Z,21.40
2017-06-17T10:44:00.553Z,21.70
2017-06-17T10:46:28.953Z,21.60
2017-06-17T10:48:57.357Z,21.80
2017-06-17T10:51:25.778Z,21.80
2017-06-17T10:53:54.168Z,21.50
2017-06-17T10:56:22.585Z,21.60
2017-06-17T10:58:50.974Z,22.30
2017-06-17T11:01:19.350Z,22.70
2017-06-17T11:03:48.537Z,22.70
2017-06-17T11:06:17.689Z,22.30
2017-06-17T11:08:46.120Z,22.30
2017-06-17T11:11:14.520Z,22.40
2017-06-17T11:13:42.914Z,22.10
2017-06-17T11:16:11.373Z,21.90
2017-06-17T11:18:39.983Z,21.10
2017-06-17T11:21:08.440Z,20.90
2017-06-17T11:23:36.846Z,21.10
2017-06-17T11:26:05.249Z,21.40
2017-06-17T11:28:33.633Z,21.10
2017-06-17T11:31:02.028Z,21.00
2017-06-17T11:33:31.230Z,20.60
2017-06-17T11:35:59.626Z,20.60
2017-06-17T11:38:28.039Z,20.40
2017-06-17T11:40:56.497Z,20.40
2017-06-17T11:43:24.898Z,20.40
2017-06-17T11:45:53.588Z,20.40
2017-06-17T11:48:22.063Z,20.30
2017-06-17T11:50:50.462Z,20.30
2017-06-17T11:53:18.852Z,20.40
2017-06-17T11:55:47.243Z,20.50
2017-06-17T11:58:16.721Z,20.50
2017-06-17T12:00:45.132Z,20.50
2017-06-17T12:03:14.285Z,20.50
2017-06-17T12:05:42.699Z,20.50
2017-06-17T12:08:11.115Z,20.50
2017-06-17T12:10:39.497Z,20.60
2017-06-17T12:13:07.912Z,20.90
2017-06-17T12:15:36.422Z,21.10
2017-06-17T12:18:04.842Z,21.20
2017-06-17T12:20:33.238Z,21.00
2017-06-17T12:23:01.629Z,20.90
2017-06-17T12:25:30.205Z,20.80
2017-06-17T12:27:58.586Z,20.90
2017-06-17T12:30:27.006Z,20.90
2017-06-17T12:32:55.405Z,21.00
2017-06-17T12:35:23.871Z,20.90
2017-06-17T12:37:52.268Z,20.80
2017-06-17T12:40:20.686Z,20.90
2017-06-17T12:42:49.116Z,21.00
2017-06-17T12:45:17.524Z,21.20
2017-06-17T12:47:45.930Z,21.30
2017-06-17T12:50:15.116Z,21.30
2017-06-17T12:52:43.505Z,21.30
2017-06-17T12:55:11.937Z,21.30
2017-06-17T12:57:40.376Z,21.10
2017-06-17T13:00:08.780Z,20.90
2017-06-17T13:02:37.190Z,20.90
2017-06-17T13:05:05.670Z,20.90
2017-06-17T13:07:34.186Z,20.90
2017-06-17T13:10:02.606Z,21.00
2017-06-17T13:12:30.997Z,21.30
2017-06-17T13:14:59.413Z,21.50
2017-06-17T13:17:27.803Z,21.40
2017-06-17T13:19:56.988Z,21.60
2017-06-17T13:22:25.420Z,21.60
2017-06-17T13:24:53.840Z,21.70
2017-06-17T13:27:22.245Z,21.70
2017-06-17T13:29:50.637Z,21.80
2017-06-17T13:32:19.053Z,21.70
2017-06-17T13:34:47.444Z,21.50
2017-06-17T13:37:15.857Z,21.10
2017-06-17T13:39:44.285Z,21.00
2017-06-17T13:42:12.696Z,21.00
2017-06-17T13:44:41.106Z,21.20
2017-06-17T13:47:09.496Z,21.20
2017-06-17T13:49:37.895Z,21.10
2017-06-17T13:52:06.305Z,21.00
2017-06-17T13:54:34.695Z,21.00
2017-06-17T13:57:03.895Z,20.90
2017-06-17T13:59:33.049Z,20.90
2017-06-17T14:02:01.447Z,20.90
2017-06-17T14:04:29.866Z,20.90
2017-06-17T14:06:58.262Z,20.80
2017-06-17T14:09:26.691Z,20.90
2017-06-17T14:11:55.087Z,21.00
2017-06-17T14:14:23.490Z,21.20
2017-06-17T14:16:51.902Z,21.40
2017-06-17T14:19:20.338Z,21.40
2017-06-17T14:22:03.504Z,21.10
2017-06-17T14:24:31.917Z,21.10
2017-06-17T14:27:00.397Z,20.80
2017-06-17T14:29:28.792Z,20.50
2017-06-17T14:31:57.186Z,20.60
2017-06-17T14:34:25.621Z,20.50
2017-06-17T14:36:54.042Z,20.40
2017-06-17T14:39:22.460Z,20.30
2017-06-17T14:41:50.837Z,20.30
2017-06-17T14:44:19.296Z,20.60
2017-06-17T14:46:47.706Z,20.50
2017-06-17T14:49:16.111Z,20.50
2017-06-17T14:51:45.331Z,20.70
2017-06-17T14:54:13.735Z,20.70
2017-06-17T14:56:42.805Z,20.60
2017-06-17T14:59:11.240Z,20.60
2017-06-17T15:01:39.630Z,20.60
2017-06-17T15:04:08.043Z,20.60
2017-06-17T15:06:36.495Z,20.60
2017-06-17T15:09:04.363Z,20.50
2017-06-17T15:11:34.270Z,20.50
2017-06-17T15:14:02.773Z,20.50
2017-06-17T15:16:31.572Z,20.70
2017-06-17T15:18:59.984Z,20.60
2017-06-17T15:21:28.404Z,20.60
2017-06-17T15:23:57.603Z,20.80
2017-06-17T15:26:26.790Z,20.90
2017-06-17T15:28:55.987Z,21.00
2017-06-17T15:31:24.714Z,20.90
2017-06-17T15:33:53.848Z,20.90
2017-06-17T15:36:22.271Z,21.00
2017-06-17T15:38:50.704Z,21.20
2017-06-17T15:41:19.112Z,21.50
2017-06-17T15:43:47.545Z,21.70
2017-06-17T15:46:15.980Z,21.90
2017-06-17T15:48:44.189Z,22.10
2017-06-17T15:51:12.646Z,22.00
2017-06-17T15:53:41.073Z,22.00
2017-06-17T15:56:09.461Z,22.00
2017-06-17T15:58:37.853Z,22.00
2017-06-17T16:01:06.267Z,22.00
2017-06-17T16:03:34.660Z,21.80
2017-06-17T16:06:03.136Z,22.00
2017-06-17T16:08:31.527Z,22.20
2017-06-17T16:10:59.927Z,22.10
2017-06-17T16:13:28.334Z,21.80
2017-06-17T16:15:57.373Z,21.60
2017-06-17T16:18:25.798Z,21.80
2017-06-17T16:20:55.035Z,21.70
2017-06-17T16:23:23.437Z,21.70
2017-06-17T16:25:51.840Z,21.90
2017-06-17T16:28:20.315Z,21.70
2017-06-17T16:30:48.740Z,21.80
2017-06-17T16:33:17.130Z,21.70
2017-06-17T16:35:45.550Z,21.50
2017-06-17T16:38:13.962Z,21.50
2017-06-17T16:40:42.375Z,21.60
2017-06-17T16:43:10.790Z,21.60
2017-06-17T16:45:39.190Z,21.60
2017-06-17T16:48:08.348Z,21.80
2017-06-17T16:50:36.738Z,21.80
2017-06-17T16:53:05.129Z,21.70
2017-06-17T16:55:33.542Z,21.70
2017-06-17T16:58:01.936Z,21.70
2017-06-17T17:00:30.373Z,21.70
2017-06-17T17:02:59.565Z,21.80
2017-06-17T17:07:49.556Z,21.90
2017-06-17T17:10:17.943Z,21.90
2017-06-17T17:12:47.111Z,21.70
2017-06-17T17:15:15.500Z,21.60
2017-06-17T17:17:43.889Z,21.50
2017-06-17T17:20:12.318Z,21.50
2017-06-17T17:22:40.728Z,21.40
2017-06-17T17:25:09.117Z,21.40
2017-06-17T17:27:37.526Z,21.30
2017-06-17T17:30:05.912Z,21.40
2017-06-17T17:32:34.346Z,21.40
2017-06-17T17:35:02.764Z,21.30
2017-06-17T17:37:31.933Z,21.40
2017-06-17T17:40:00.341Z,21.40
2017-06-17T17:42:28.743Z,21.40
2017-06-17T17:44:58.603Z,21.10
2017-06-17T17:47:26.986Z,21.10
2017-06-17T17:49:55.365Z,21.10
2017-06-17T17:52:23.769Z,21.20
2017-06-17T17:54:52.173Z,21.10
2017-06-17T17:57:20.593Z,21.00
2017-06-17T17:59:48.961Z,21.00
2017-06-17T18:02:17.356Z,21.00
2017-06-17T18:04:45.761Z,20.90
2017-06-17T18:07:14.167Z,20.90
2017-06-17T18:09:42.624Z,20.90
2017-06-17T18:12:11.019Z,20.80
2017-06-17T18:14:39.408Z,20.80
2017-06-17T18:17:07.797Z,20.80
2017-06-17T18:19:36.188Z,20.80
2017-06-17T18:22:04.590Z,20.90
2017-06-17T18:24:33.009Z,20.90
2017-06-17T18:27:01.399Z,20.90
2017-06-17T18:29:29.803Z,20.80
2017-06-17T18:31:58.192Z,20.80
2017-06-17T18:34:26.613Z,20.80
2017-06-17T18:36:55.005Z,20.70
2017-06-17T18:39:23.405Z,20.70
2017-06-17T18:41:51.798Z,20.80
2017-06-17T18:44:20.194Z,20.80
2017-06-17T18:46:49.380Z,20.70
2017-06-17T18:49:17.832Z,20.70
2017-06-17T18:51:46.231Z,20.70
2017-06-17T18:54:14.640Z,20.60
2017-06-17T18:56:43.016Z,20.60
2017-06-17T18:59:11.444Z,20.50
2017-06-17T19:03:22.570Z,20.60
2017-06-17T19:05:50.981Z,20.60
2017-06-17T19:08:19.369Z,20.60
2017-06-17T19:10:47.761Z,20.60
2017-06-17T19:13:16.240Z,20.40
2017-06-17T19:15:44.614Z,20.50
2017-06-17T19:18:13.026Z,20.40
2017-06-17T19:20:41.430Z,20.40
2017-06-17T19:23:10.606Z,20.50
2017-06-17T19:25:39.798Z,20.50
2017-06-17T19:28:08.218Z,20.50
2017-06-17T19:30:36.641Z,20.60
2017-06-17T19:33:05.086Z,20.60
2017-06-17T19:35:33.496Z,20.60
2017-06-17T19:38:01.916Z,20.60
2017-06-17T19:40:31.069Z,20.70
2017-06-17T19:42:59.559Z,20.60
2017-06-17T19:45:27.952Z,20.70
2017-06-17T19:47:56.401Z,20.90
2017-06-17T19:50:24.851Z,20.90
2017-06-17T19:52:53.234Z,20.70
2017-06-17T19:55:21.660Z,20.70
2017-06-17T19:57:50.207Z,20.60
2017-06-17T20:00:18.601Z,20.60
2017-06-17T20:02:47.036Z,20.70
2017-06-17T20:05:15.434Z,20.80
2017-06-17T20:07:43.890Z,20.90
2017-06-17T20:10:12.098Z,21.00
2017-06-17T20:12:40.518Z,21.00
2017-06-17T20:15:08.915Z,20.90
2017-06-17T20:17:37.295Z,21.10
2017-06-17T20:20:06.465Z,21.20
2017-06-17T20:22:48.014Z,21.10
2017-06-17T20:25:16.454Z,21.20
2017-06-17T20:27:45.676Z,21.10
2017-06-17T20:30:14.065Z,21.00
2017-06-17T20:32:42.468Z,21.00
2017-06-17T20:35:10.858Z,21.00
2017-06-17T20:37:39.255Z,21.00
2017-06-17T20:40:08.429Z,20.80
2017-06-17T20:42:36.882Z,20.80
2017-06-17T20:45:05.314Z,20.80
2017-06-17T20:47:33.717Z,20.60
2017-06-17T20:50:02.124Z,20.60
2017-06-17T20:52:30.554Z,20.50
2017-06-17T20:54:59.074Z,20.50
2017-06-17T20:57:27.486Z,20.50
2017-06-17T20:59:55.873Z,20.50
2017-06-17T21:02:25.058Z,20.40
2017-06-17T21:04:53.476Z,20.40
2017-06-17T21:07:21.998Z,20.40
2017-06-17T21:09:50.406Z,20.30
2017-06-17T21:12:18.780Z,20.30
2017-06-17T21:14:47.195Z,20.20
2017-06-17T21:17:15.637Z,20.20
2017-06-17T21:19:44.041Z,20.20
2017-06-17T21:22:12.534Z,20.20
2017-06-17T21:24:40.942Z,20.20
2017-06-17T21:27:09.446Z,20.10
2017-06-17T21:29:38.646Z,20.10
2017-06-17T21:32:07.046Z,20.10
2017-06-17T21:34:35.465Z,20.10
2017-06-17T21:37:03.871Z,20.10
2017-06-17T21:39:32.266Z,20.10
2017-06-17T21:42:00.656Z,20.10
2017-06-17T21:44:29.057Z,20.10
2017-06-17T21:46:57.481Z,20.10
2017-06-17T21:49:25.869Z,20.10
2017-06-17T21:51:54.286Z,20.10
2017-06-17T21:54:22.708Z,20.10
2017-06-17T21:56:51.111Z,20.10
2017-06-17T21:59:19.545Z,20.10
2017-06-17T22:01:47.931Z,20.00
2017-06-17T22:04:16.369Z,20.00
2017-06-17T22:06:44.798Z,20.00
2017-06-17T22:09:13.192Z,20.00
2017-06-17T22:11:41.596Z,20.00
2017-06-17T22:14:09.985Z,20.00
2017-06-17T22:16:39.171Z,20.00
2017-06-17T22:19:07.584Z,20.00
2017-06-17T22:21:35.989Z,20.00
2017-06-17T22:24:04.393Z,19.90
2017-06-17T22:26:32.774Z,20.00
2017-06-17T22:29:01.157Z,19.90
2017-06-17T22:31:29.570Z,19.90
2017-06-17T22:33:57.876Z,19.90
2017-06-17T22:36:26.099Z,19.90
2017-06-17T22:38:55.259Z,19.90
2017-06-17T22:41:23.665Z,19.90
2017-06-17T22:43:52.081Z,19.90
2017-06-17T22:46:20.490Z,19.80
2017-06-17T22:48:48.892Z,19.80
2017-06-17T22:51:17.279Z,19.90
2017-06-17T22:53:45.685Z,19.90
2017-06-17T22:56:14.092Z,19.90
2017-06-17T22:58:42.489Z,19.80
2017-06-17T23:01:10.916Z,19.90
2017-06-17T23:03:40.086Z,19.90
2017-06-17T23:06:08.482Z,19.80
2017-06-17T23:08:37.641Z,19.90
2017-06-17T23:11:06.033Z,19.80
2017-06-17T23:13:34.437Z,19.80
2017-06-17T23:16:02.841Z,19.90
2017-06-17T23:18:31.239Z,19.90
2017-06-17T23:20:59.665Z,19.90
2017-06-17T23:23:28.053Z,19.90
2017-06-17T23:25:57.246Z,19.60
2017-06-17T23:28:25.641Z,19.60
2017-06-17T23:30:54.018Z,19.70
2017-06-17T23:33:22.422Z,19.90
2017-06-17T23:35:50.809Z,19.90
2017-06-17T23:38:19.320Z,19.90
2017-06-17T23:40:47.724Z,19.90
2017-06-17T23:43:16.878Z,19.80
2017-06-17T23:45:45.267Z,19.80
2017-06-17T23:48:13.655Z,19.70
2017-06-17T23:50:42.055Z,19.60
2017-06-17T23:53:10.478Z,19.50
2017-06-17T23:55:38.886Z,19.40
2017-06-17T23:58:08.084Z,19.20
